Huvudsida
METAR-TAF:

METAR-TAF

Flygplatser :

Sandnessjøens flygplats. Stokka

Sandnessjøen, Norge

latitud: 65-58N, longitud: 012-28E, höjd: 1 m

Aktuellt väderrapport

Denna rapport gjordes för 44 minuter sedan, klockan 19:50 UTC
Vind 8 kt från syd/sydost
Temperatur 5°C
Fuktighet 81%
Tryck 1036 hPa
Sikt 10 km eller mer
Brutna moln på en höjd av 2200 ft

METAR: ENST 191950Z 16008KT 9999 BKN022 05/02 Q1036 RMK WIND 300FT 17011KT

Tid: 21:34 (20:34 UTC)


TAF: saknas

Aktuella väderrapporter och prognoser från 4000 flygplatser (METAR- och TAF-rapporter).

De tillgängliga stationerna syns som gula och röda prickar på kartan.

För musen över prickarna för att se namnen på stationerna.

Klicka sedan för att få väderrapporter och prognoser.

För att ändra kartan: Klicka på de gröna knapparna med ett svart kors på för att zooma in; den gröna knappen med ett streck på för att zooma ut; eller på de gröna pilarna för angränsande kartor.


METAR-TAF: